sensor_id;sensor_type;location;lat;lon;timestamp;pressure;altitude;pressure_sealevel;temperature;humidity
60437;BME280;46289;51.992;4.498;2022-08-06T00:00:28;102772.09;;;12.37;100.00
60437;BME280;46289;51.992;4.498;2022-08-06T00:02:58;102775.56;;;12.36;100.00
60437;BME280;46289;51.992;4.498;2022-08-06T00:05:30;102780.88;;;12.37;100.00
60437;BME280;46289;51.992;4.498;2022-08-06T00:08:05;102779.06;;;12.36;100.00
60437;BME280;46289;51.992;4.498;2022-08-06T00:10:46;102778.06;;;12.33;100.00
60437;BME280;46289;51.992;4.498;2022-08-06T00:13:16;102782.44;;;12.32;100.00
60437;BME280;46289;51.992;4.498;2022-08-06T00:15:47;102777.94;;;12.30;100.00
60437;BME280;46289;51.992;4.498;2022-08-06T00:18:37;102777.91;;;12.28;100.00
60437;BME280;46289;51.992;4.498;2022-08-06T00:21:09;102778.69;;;12.26;100.00
60437;BME280;46289;51.992;4.498;2022-08-06T00:23:59;102788.38;;;12.27;100.00
60437;BME280;46289;51.992;4.498;2022-08-06T00:26:41;102788.31;;;12.25;100.00
60437;BME280;46289;51.992;4.498;2022-08-06T00:29:31;102795.25;;;12.23;100.00
60437;BME280;46289;51.992;4.498;2022-08-06T00:32:17;102794.22;;;12.20;100.00
60437;BME280;46289;51.992;4.498;2022-08-06T00:34:55;102802.91;;;12.17;100.00
60437;BME280;46289;51.992;4.498;2022-08-06T00:37:26;102792.31;;;12.16;100.00
60437;BME280;46289;51.992;4.498;2022-08-06T00:40:20;102808.00;;;12.13;100.00
60437;BME280;46289;51.992;4.498;2022-08-06T00:43:01;102807.94;;;12.11;100.00
60437;BME280;46289;51.992;4.498;2022-08-06T00:45:40;102808.78;;;12.10;100.00
60437;BME280;46289;51.992;4.498;2022-08-06T00:48:12;102809.66;;;12.10;100.00
60437;BME280;46289;51.992;4.498;2022-08-06T00:51:02;102815.72;;;12.08;100.00
60437;BME280;46289;51.992;4.498;2022-08-06T00:53:44;102808.59;;;12.05;100.00
60437;BME280;46289;51.992;4.498;2022-08-06T00:56:14;102804.16;;;12.04;100.00
60437;BME280;46289;51.992;4.498;2022-08-06T00:58:57;102810.22;;;12.02;100.00
60437;BME280;46289;51.992;4.498;2022-08-06T01:01:30;102805.72;;;11.99;100.00
60437;BME280;46289;51.992;4.498;2022-08-06T01:04:17;102805.59;;;11.96;100.00
60437;BME280;46289;51.992;4.498;2022-08-06T01:06:52;102805.59;;;11.96;100.00
60437;BME280;46289;51.992;4.498;2022-08-06T01:09:26;102809.97;;;11.96;100.00
60437;BME280;46289;51.992;4.498;2022-08-06T01:11:57;102813.50;;;11.96;100.00
60437;BME280;46289;51.992;4.498;2022-08-06T01:14:34;102810.88;;;11.96;100.00
60437;BME280;46289;51.992;4.498;2022-08-06T01:17:09;102815.16;;;11.94;100.00
60437;BME280;46289;51.992;4.498;2022-08-06T01:19:59;102822.09;;;11.92;100.00
60437;BME280;46289;51.992;4.498;2022-08-06T01:23:10;102824.59;;;11.89;100.00
60437;BME280;46289;51.992;4.498;2022-08-06T01:28:52;102830.47;;;11.82;100.00
60437;BME280;46289;51.992;4.498;2022-08-06T01:31:30;102834.69;;;11.78;100.00
60437;BME280;46289;51.992;4.498;2022-08-06T01:34:08;102834.53;;;11.75;100.00
60437;BME280;46289;51.992;4.498;2022-08-06T01:36:43;102828.38;;;11.75;100.00
60437;BME280;46289;51.992;4.498;2022-08-06T01:39:16;102831.91;;;11.75;100.00
60437;BME280;46289;51.992;4.498;2022-08-06T01:42:07;102825.75;;;11.75;100.00
60437;BME280;46289;51.992;4.498;2022-08-06T01:44:43;102829.16;;;11.72;100.00
60437;BME280;46289;51.992;4.498;2022-08-06T01:47:18;102832.69;;;11.73;100.00
60437;BME280;46289;51.992;4.498;2022-08-06T01:50:12;102833.59;;;11.73;100.00
60437;BME280;46289;51.992;4.498;2022-08-06T01:52:55;102833.47;;;11.70;100.00
60437;BME280;46289;51.992;4.498;2022-08-06T01:55:27;102829.94;;;11.70;100.00
60437;BME280;46289;51.992;4.498;2022-08-06T01:58:22;102829.88;;;11.68;100.00
60437;BME280;46289;51.992;4.498;2022-08-06T02:01:02;102827.19;;;11.67;100.00
60437;BME280;46289;51.992;4.498;2022-08-06T02:03:39;102829.88;;;11.68;100.00
60437;BME280;46289;51.992;4.498;2022-08-06T02:06:28;102825.28;;;11.63;100.00
60437;BME280;46289;51.992;4.498;2022-08-06T02:09:04;102827.00;;;11.62;100.00
60437;BME280;46289;51.992;4.498;2022-08-06T02:11:56;102821.63;;;11.59;100.00
60437;BME280;46289;51.992;4.498;2022-08-06T02:14:36;102824.19;;;11.58;100.00
60437;BME280;46289;51.992;4.498;2022-08-06T02:17:12;102828.47;;;11.56;100.00
60437;BME280;46289;51.992;4.498;2022-08-06T02:20:06;102826.63;;;11.53;100.00
60437;BME280;46289;51.992;4.498;2022-08-06T02:23:01;102818.69;;;11.52;100.00
60437;BME280;46289;51.992;4.498;2022-08-06T02:25:35;102823.09;;;11.53;100.00
60437;BME280;46289;51.992;4.498;2022-08-06T02:28:09;102824.75;;;11.51;100.00
60437;BME280;46289;51.992;4.498;2022-08-06T02:30:52;102827.34;;;11.49;100.00
60437;BME280;46289;51.992;4.498;2022-08-06T02:33:30;102834.25;;;11.47;100.00
60437;BME280;46289;51.992;4.498;2022-08-06T02:36:28;102833.25;;;11.43;100.00
60437;BME280;46289;51.992;4.498;2022-08-06T02:39:03;102835.03;;;11.44;100.00
60437;BME280;46289;51.992;4.498;2022-08-06T02:41:42;102831.47;;;11.42;100.00
60437;BME280;46289;51.992;4.498;2022-08-06T02:44:26;102836.66;;;11.41;100.00
60437;BME280;46289;51.992;4.498;2022-08-06T02:47:05;102831.97;;;11.34;100.00
60437;BME280;46289;51.992;4.498;2022-08-06T02:49:50;102837.25;;;11.34;100.00
60437;BME280;46289;51.992;4.498;2022-08-06T02:52:28;102841.59;;;11.33;100.00
60437;BME280;46289;51.992;4.498;2022-08-06T02:55:16;102850.25;;;11.31;100.00
60437;BME280;46289;51.992;4.498;2022-08-06T02:57:58;102845.81;;;11.30;100.00
60437;BME280;46289;51.992;4.498;2022-08-06T03:00:35;102851.06;;;11.30;100.00
60437;BME280;46289;51.992;4.498;2022-08-06T03:03:21;102848.38;;;11.28;100.00
60437;BME280;46289;51.992;4.498;2022-08-06T03:06:04;102846.47;;;11.24;100.00
60437;BME280;46289;51.992;4.498;2022-08-06T03:08:39;102851.72;;;11.24;100.00
60437;BME280;46289;51.992;4.498;2022-08-06T03:11:15;102853.44;;;11.24;100.00
60437;BME280;46289;51.992;4.498;2022-08-06T03:13:47;102855.16;;;11.23;100.00
60437;BME280;46289;51.992;4.498;2022-08-06T03:16:18;102851.59;;;11.21;100.00
60437;BME280;46289;51.992;4.498;2022-08-06T03:18:56;102851.44;;;11.18;100.00
60437;BME280;46289;51.992;4.498;2022-08-06T03:21:51;102848.75;;;11.17;100.00
60437;BME280;46289;51.992;4.498;2022-08-06T03:24:25;102848.75;;;11.17;100.00
60437;BME280;46289;51.992;4.498;2022-08-06T03:27:06;102851.50;;;11.20;100.00
60437;BME280;46289;51.992;4.498;2022-08-06T03:29:43;102847.88;;;11.16;100.00
60437;BME280;46289;51.992;4.498;2022-08-06T03:32:28;102845.16;;;11.14;100.00
60437;BME280;46289;51.992;4.498;2022-08-06T03:35:18;102855.59;;;11.13;100.00
60437;BME280;46289;51.992;4.498;2022-08-06T03:38:12;102859.06;;;11.12;100.00
60437;BME280;46289;51.992;4.498;2022-08-06T03:40:44;102864.25;;;11.10;100.00
60437;BME280;46289;51.992;4.498;2022-08-06T03:43:17;102867.66;;;11.08;100.00
60437;BME280;46289;51.992;4.498;2022-08-06T03:45:59;102859.63;;;11.05;100.00
60437;BME280;46289;51.992;4.498;2022-08-06T03:48:37;102866.63;;;11.04;100.00
60437;BME280;46289;51.992;4.498;2022-08-06T03:51:11;102862.94;;;11.01;100.00
60437;BME280;46289;51.992;4.498;2022-08-06T03:53:44;102856.81;;;11.00;100.00
60437;BME280;46289;51.992;4.498;2022-08-06T03:56:26;102856.47;;;10.93;100.00
60437;BME280;46289;51.992;4.498;2022-08-06T03:59:01;102867.09;;;10.96;100.00
60437;BME280;46289;51.992;4.498;2022-08-06T04:01:35;102861.78;;;10.94;100.00
60437;BME280;46289;51.992;4.498;2022-08-06T04:04:16;102867.94;;;10.95;100.00
60437;BME280;46289;51.992;4.498;2022-08-06T04:06:53;102875.75;;;10.93;100.00
60437;BME280;46289;51.992;4.498;2022-08-06T04:09:30;102875.69;;;10.92;100.00
60437;BME280;46289;51.992;4.498;2022-08-06T04:12:21;102876.50;;;10.91;100.00
60437;BME280;46289;51.992;4.498;2022-08-06T04:15:16;102876.38;;;10.88;100.00
60437;BME280;46289;51.992;4.498;2022-08-06T04:17:53;102878.25;;;10.90;100.00
60437;BME280;46289;51.992;4.498;2022-08-06T04:20:26;102879.97;;;10.90;100.00
60437;BME280;46289;51.992;4.498;2022-08-06T04:23:09;102876.50;;;10.91;100.00
60437;BME280;46289;51.992;4.498;2022-08-06T04:26:06;102881.75;;;10.91;100.00
60437;BME280;46289;51.992;4.498;2022-08-06T04:28:43;102878.16;;;10.89;100.00
60437;BME280;46289;51.992;4.498;2022-08-06T04:31:28;102879.97;;;10.90;100.00
60437;BME280;46289;51.992;4.498;2022-08-06T04:34:23;102870.44;;;10.92;100.00
60437;BME280;46289;51.992;4.498;2022-08-06T04:36:58;102882.72;;;10.93;100.00
60437;BME280;46289;51.992;4.498;2022-08-06T04:39:31;102879.19;;;10.92;100.00
60437;BME280;46289;51.992;4.498;2022-08-06T04:42:18;102881.75;;;10.91;100.00
60437;BME280;46289;51.992;4.498;2022-08-06T04:44:49;102881.91;;;10.94;100.00
60437;BME280;46289;51.992;4.498;2022-08-06T04:47:28;102875.69;;;10.92;100.00
60437;BME280;46289;51.992;4.498;2022-08-06T04:50:13;102882.78;;;10.94;100.00
60437;BME280;46289;51.992;4.498;2022-08-06T04:52:50;102887.34;;;10.98;100.00
60437;BME280;46289;51.992;4.498;2022-08-06T04:55:22;102885.69;;;11.00;100.00
60437;BME280;46289;51.992;4.498;2022-08-06T04:58:05;102891.22;;;11.06;100.00
60437;BME280;46289;51.992;4.498;2022-08-06T05:00:47;102893.22;;;11.12;100.00
60437;BME280;46289;51.992;4.498;2022-08-06T05:03:36;102900.38;;;11.16;100.00
60437;BME280;46289;51.992;4.498;2022-08-06T05:06:33;102899.81;;;11.23;100.00
60437;BME280;46289;51.992;4.498;2022-08-06T05:09:18;102906.25;;;11.30;100.00
60437;BME280;46289;51.992;4.498;2022-08-06T05:12:15;102912.66;;;11.36;100.00
60437;BME280;46289;51.992;4.498;2022-08-06T05:14:53;102913.00;;;11.45;100.00
60437;BME280;46289;51.992;4.498;2022-08-06T05:17:29;102917.75;;;11.54;100.00
60437;BME280;46289;51.992;4.498;2022-08-06T05:20:06;102922.78;;;11.69;100.00
60437;BME280;46289;51.992;4.498;2022-08-06T05:22:59;102919.38;;;11.92;100.00
60437;BME280;46289;51.992;4.498;2022-08-06T05:25:46;102913.25;;;12.14;100.00
60437;BME280;46289;51.992;4.498;2022-08-06T05:28:22;102917.53;;;12.33;100.00
60437;BME280;46289;51.992;4.498;2022-08-06T05:30:56;102919.28;;;12.56;100.00
60437;BME280;46289;51.992;4.498;2022-08-06T05:33:29;102915.66;;;12.76;100.00
60437;BME280;46289;51.992;4.498;2022-08-06T05:36:06;102924.28;;;12.96;100.00
60437;BME280;46289;51.992;4.498;2022-08-06T05:38:46;102925.22;;;13.21;100.00
60437;BME280;46289;51.992;4.498;2022-08-06T05:41:26;102930.50;;;13.46;100.00
60437;BME280;46289;51.992;4.498;2022-08-06T05:44:04;102929.34;;;13.65;100.00
60437;BME280;46289;51.992;4.498;2022-08-06T05:46:40;102932.91;;;13.92;100.00
60437;BME280;46289;51.992;4.498;2022-08-06T05:49:14;102936.34;;;14.17;100.00
60437;BME280;46289;51.992;4.498;2022-08-06T05:52:11;102939.09;;;14.47;100.00
60437;BME280;46289;51.992;4.498;2022-08-06T05:54:48;102932.75;;;14.71;100.00
60437;BME280;46289;51.992;4.498;2022-08-06T05:57:26;102940.38;;;14.91;100.00
60437;BME280;46289;51.992;4.498;2022-08-06T06:00:12;102941.16;;;15.18;100.00
60437;BME280;46289;51.992;4.498;2022-08-06T06:03:11;102947.28;;;15.49;100.00
60437;BME280;46289;51.992;4.498;2022-08-06T06:05:55;102944.50;;;15.77;100.00
60437;BME280;46289;51.992;4.498;2022-08-06T06:08:43;102949.50;;;16.01;100.00
60437;BME280;46289;51.992;4.498;2022-08-06T06:11:28;102951.75;;;16.22;100.00
60437;BME280;46289;51.992;4.498;2022-08-06T06:14:30;102958.63;;;16.51;100.00
60437;BME280;46289;51.992;4.498;2022-08-06T06:17:18;102958.22;;;16.72;100.00
60437;BME280;46289;51.992;4.498;2022-08-06T06:20:04;102956.97;;;16.97;100.00
60437;BME280;46289;51.992;4.498;2022-08-06T06:22:46;102953.88;;;17.19;100.00
60437;BME280;46289;51.992;4.498;2022-08-06T06:25:24;102952.59;;;17.44;100.00
60437;BME280;46289;51.992;4.498;2022-08-06T06:28:02;102959.88;;;17.56;100.00
60437;BME280;46289;51.992;4.498;2022-08-06T06:30:51;102958.25;;;17.64;97.75
60437;BME280;46289;51.992;4.498;2022-08-06T06:33:38;102961.41;;;17.91;99.55
60437;BME280;46289;51.992;4.498;2022-08-06T06:36:24;102956.78;;;18.36;98.96
60437;BME280;46289;51.992;4.498;2022-08-06T06:39:01;102958.78;;;18.50;93.72
60437;BME280;46289;51.992;4.498;2022-08-06T06:41:39;102959.78;;;18.58;93.08
60437;BME280;46289;51.992;4.498;2022-08-06T06:44:17;102959.19;;;18.81;93.24
60437;BME280;46289;51.992;4.498;2022-08-06T06:47:16;102959.78;;;18.60;87.98
60437;BME280;46289;51.992;4.498;2022-08-06T06:49:58;102965.44;;;18.86;88.48
60437;BME280;46289;51.992;4.498;2022-08-06T06:52:38;102972.13;;;19.24;87.84
60437;BME280;46289;51.992;4.498;2022-08-06T06:55:12;102969.56;;;19.32;86.50
60437;BME280;46289;51.992;4.498;2022-08-06T06:58:05;102969.03;;;19.64;86.38
60437;BME280;46289;51.992;4.498;2022-08-06T07:00:37;102968.22;;;19.72;84.70
60437;BME280;46289;51.992;4.498;2022-08-06T07:03:13;102970.94;;;19.81;83.55
60437;BME280;46289;51.992;4.498;2022-08-06T07:05:48;102970.16;;;19.93;80.02
60437;BME280;46289;51.992;4.498;2022-08-06T07:08:41;102965.00;;;20.16;81.72
60437;BME280;46289;51.992;4.498;2022-08-06T07:11:20;102974.63;;;19.99;78.84
60437;BME280;46289;51.992;4.498;2022-08-06T07:14:06;102970.25;;;20.05;77.71
60437;BME280;46289;51.992;4.498;2022-08-06T07:16:41;102975.03;;;20.50;77.21
60437;BME280;46289;51.992;4.498;2022-08-06T07:19:18;102981.25;;;20.48;73.90
60437;BME280;46289;51.992;4.498;2022-08-06T07:21:49;102984.47;;;20.07;73.45
60437;BME280;46289;51.992;4.498;2022-08-06T07:24:26;102991.31;;;19.73;74.68
60437;BME280;46289;51.992;4.498;2022-08-06T07:27:08;102994.31;;;19.26;75.55
60437;BME280;46289;51.992;4.498;2022-08-06T07:29:41;102983.59;;;19.19;79.64
60437;BME280;46289;51.992;4.498;2022-08-06T07:32:26;102991.47;;;19.95;78.31
60437;BME280;46289;51.992;4.498;2022-08-06T07:35:03;102997.59;;;19.84;74.09
60437;BME280;46289;51.992;4.498;2022-08-06T07:37:41;102993.50;;;20.28;73.00
60437;BME280;46289;51.992;4.498;2022-08-06T07:40:22;102987.88;;;19.91;75.02
60437;BME280;46289;51.992;4.498;2022-08-06T07:43:00;102986.28;;;20.10;76.18
60437;BME280;46289;51.992;4.498;2022-08-06T07:45:48;102990.16;;;20.54;74.07
60437;BME280;46289;51.992;4.498;2022-08-06T07:48:24;102984.03;;;20.68;73.24
60437;BME280;46289;51.992;4.498;2022-08-06T07:51:02;102985.53;;;20.32;68.40
60437;BME280;46289;51.992;4.498;2022-08-06T07:53:39;102995.59;;;19.57;72.15
60437;BME280;46289;51.992;4.498;2022-08-06T08:03:11;103000.78;;;19.50;74.38
60437;BME280;46289;51.992;4.498;2022-08-06T08:06:18;103000.72;;;19.44;72.27
60437;BME280;46289;51.992;4.498;2022-08-06T08:08:54;103003.25;;;19.33;74.37
60437;BME280;46289;51.992;4.498;2022-08-06T08:11:30;102994.59;;;20.49;70.88
60437;BME280;46289;51.992;4.498;2022-08-06T08:14:27;103000.13;;;20.92;66.96
60437;BME280;46289;51.992;4.498;2022-08-06T08:16:59;103001.81;;;20.69;66.46
60437;BME280;46289;51.992;4.498;2022-08-06T08:19:33;103008.88;;;20.64;68.53
60437;BME280;46289;51.992;4.498;2022-08-06T08:22:09;103008.41;;;21.74;66.64
60437;BME280;46289;51.992;4.498;2022-08-06T08:24:47;103005.72;;;21.96;64.63
60437;BME280;46289;51.992;4.498;2022-08-06T08:27:21;103003.88;;;21.34;63.05
60437;BME280;46289;51.992;4.498;2022-08-06T08:29:53;103003.69;;;20.94;65.07
60437;BME280;46289;51.992;4.498;2022-08-06T08:32:28;103008.84;;;20.56;66.79
60437;BME280;46289;51.992;4.498;2022-08-06T08:35:03;103018.56;;;20.48;67.24
60437;BME280;46289;51.992;4.498;2022-08-06T08:37:34;103008.41;;;20.01;69.47
60437;BME280;46289;51.992;4.498;2022-08-06T08:40:10;103010.09;;;19.91;71.53
60437;BME280;46289;51.992;4.498;2022-08-06T08:42:43;103011.16;;;20.13;70.03
60437;BME280;46289;51.992;4.498;2022-08-06T08:45:19;103009.66;;;20.47;70.02
60437;BME280;46289;51.992;4.498;2022-08-06T08:48:01;103017.63;;;20.40;69.79
60437;BME280;46289;51.992;4.498;2022-08-06T08:50:35;103017.75;;;20.60;70.01
60437;BME280;46289;51.992;4.498;2022-08-06T08:53:10;103012.78;;;21.36;68.55
60437;BME280;46289;51.992;4.498;2022-08-06T08:56:02;103014.22;;;20.64;64.14
60437;BME280;46289;51.992;4.498;2022-08-06T08:58:54;103012.34;;;20.49;62.90
60437;BME280;46289;51.992;4.498;2022-08-06T09:01:30;103008.81;;;20.51;63.34
60437;BME280;46289;51.992;4.498;2022-08-06T09:04:21;103015.28;;;19.75;66.32
60437;BME280;46289;51.992;4.498;2022-08-06T09:06:57;103013.38;;;20.72;64.37
60437;BME280;46289;51.992;4.498;2022-08-06T09:09:27;103017.88;;;20.90;nan
60437;BME280;46289;51.992;4.498;2022-08-06T09:11:59;103016.75;;;20.42;62.92
60437;BME280;46289;51.992;4.498;2022-08-06T09:14:46;103021.88;;;20.19;64.48
60437;BME280;46289;51.992;4.498;2022-08-06T09:17:19;103023.25;;;19.73;65.07
60437;BME280;46289;51.992;4.498;2022-08-06T09:20:14;103023.22;;;20.87;63.15
60437;BME280;46289;51.992;4.498;2022-08-06T09:22:47;103017.09;;;21.12;60.56
60437;BME280;46289;51.992;4.498;2022-08-06T09:25:35;103015.50;;;21.65;59.74
60437;BME280;46289;51.992;4.498;2022-08-06T09:28:36;102999.50;;;22.26;55.91
60437;BME280;46289;51.992;4.498;2022-08-06T09:31:09;103013.75;;;21.70;56.57
60437;BME280;46289;51.992;4.498;2022-08-06T09:33:59;103011.94;;;21.50;56.13
60437;BME280;46289;51.992;4.498;2022-08-06T09:36:49;103016.41;;;21.91;55.70
60437;BME280;46289;51.992;4.498;2022-08-06T09:39:35;103002.03;;;22.88;52.94
60437;BME280;46289;51.992;4.498;2022-08-06T09:42:36;103004.72;;;22.90;52.88
60437;BME280;46289;51.992;4.498;2022-08-06T09:45:12;103015.56;;;22.09;50.03
60437;BME280;46289;51.992;4.498;2022-08-06T09:47:44;103006.56;;;22.75;51.59
60437;BME280;46289;51.992;4.498;2022-08-06T09:50:40;103003.91;;;22.68;50.74
60437;BME280;46289;51.992;4.498;2022-08-06T09:53:13;103007.25;;;23.20;49.49
60437;BME280;46289;51.992;4.498;2022-08-06T09:55:51;102995.41;;;23.67;49.05
60437;BME280;46289;51.992;4.498;2022-08-06T09:58:29;103008.81;;;23.65;48.03
60437;BME280;46289;51.992;4.498;2022-08-06T10:01:14;103008.66;;;23.90;48.22
60437;BME280;46289;51.992;4.498;2022-08-06T10:03:52;103005.47;;;23.21;49.54
60437;BME280;46289;51.992;4.498;2022-08-06T10:06:56;103009.97;;;24.42;48.44
60437;BME280;46289;51.992;4.498;2022-08-06T10:09:27;103003.78;;;24.36;47.52
60437;BME280;46289;51.992;4.498;2022-08-06T10:12:20;103011.00;;;22.87;48.37
60437;BME280;46289;51.992;4.498;2022-08-06T10:14:54;103009.09;;;23.12;47.93
60437;BME280;46289;51.992;4.498;2022-08-06T10:17:26;103013.69;;;22.69;47.40
60437;BME280;46289;51.992;4.498;2022-08-06T10:20:16;103007.94;;;23.63;49.27
60437;BME280;46289;51.992;4.498;2022-08-06T10:22:50;103013.44;;;23.36;44.45
60437;BME280;46289;51.992;4.498;2022-08-06T10:25:25;103015.41;;;22.94;46.90
60437;BME280;46289;51.992;4.498;2022-08-06T10:28:06;103012.63;;;23.22;46.26
60437;BME280;46289;51.992;4.498;2022-08-06T10:30:40;103019.69;;;23.35;45.23
60437;BME280;46289;51.992;4.498;2022-08-06T10:33:12;103013.44;;;23.33;45.29
60437;BME280;46289;51.992;4.498;2022-08-06T10:35:49;103002.16;;;24.13;45.41
60437;BME280;46289;51.992;4.498;2022-08-06T10:38:22;103021.47;;;23.33;49.09
60437;BME280;46289;51.992;4.498;2022-08-06T10:41:06;103021.72;;;22.84;48.62
60437;BME280;46289;51.992;4.498;2022-08-06T10:44:02;103017.31;;;21.98;50.29
60437;BME280;46289;51.992;4.498;2022-08-06T10:46:34;103021.75;;;21.93;50.13
60437;BME280;46289;51.992;4.498;2022-08-06T10:49:07;103017.25;;;21.40;51.33
60437;BME280;46289;51.992;4.498;2022-08-06T10:51:58;103020.81;;;21.42;52.50
60437;BME280;46289;51.992;4.498;2022-08-06T10:54:31;103026.22;;;21.83;48.55
60437;BME280;46289;51.992;4.498;2022-08-06T10:57:01;103014.59;;;22.83;46.45
60437;BME280;46289;51.992;4.498;2022-08-06T10:59:35;103016.41;;;22.50;45.26
60437;BME280;46289;51.992;4.498;2022-08-06T11:02:16;103018.88;;;23.21;46.79
60437;BME280;46289;51.992;4.498;2022-08-06T11:04:51;103021.78;;;22.28;46.91
60437;BME280;46289;51.992;4.498;2022-08-06T11:07:52;103003.97;;;22.28;47.43
60437;BME280;46289;51.992;4.498;2022-08-06T11:11:02;103009.28;;;22.46;48.37
60437;BME280;46289;51.992;4.498;2022-08-06T11:13:56;102998.22;;;23.44;46.79
60437;BME280;46289;51.992;4.498;2022-08-06T11:16:44;103002.78;;;23.25;45.84
60437;BME280;46289;51.992;4.498;2022-08-06T11:19:42;102999.47;;;22.61;46.44
60437;BME280;46289;51.992;4.498;2022-08-06T11:22:35;102995.84;;;22.86;46.40
60437;BME280;46289;51.992;4.498;2022-08-06T11:25:37;103001.22;;;22.72;46.61
60437;BME280;46289;51.992;4.498;2022-08-06T11:28:11;102997.56;;;22.93;48.36
60437;BME280;46289;51.992;4.498;2022-08-06T11:30:42;103008.41;;;21.94;50.13
60437;BME280;46289;51.992;4.498;2022-08-06T11:33:18;102996.81;;;22.38;49.73
60437;BME280;46289;51.992;4.498;2022-08-06T11:35:51;102993.03;;;23.13;49.29
60437;BME280;46289;51.992;4.498;2022-08-06T11:38:56;102995.78;;;22.91;47.65
60437;BME280;46289;51.992;4.498;2022-08-06T11:41:49;103000.38;;;21.96;48.08
60437;BME280;46289;51.992;4.498;2022-08-06T11:44:28;102993.25;;;21.99;50.01
60437;BME280;46289;51.992;4.498;2022-08-06T11:47:14;102987.72;;;23.04;46.09
60437;BME280;46289;51.992;4.498;2022-08-06T11:49:59;103002.16;;;22.00;46.49
60437;BME280;46289;51.992;4.498;2022-08-06T11:52:40;102994.13;;;22.55;46.21
60437;BME280;46289;51.992;4.498;2022-08-06T11:55:12;102985.16;;;22.69;46.53
60437;BME280;46289;51.992;4.498;2022-08-06T11:58:17;102988.63;;;23.02;45.51
60437;BME280;46289;51.992;4.498;2022-08-06T12:00:58;102997.63;;;22.86;45.21
60437;BME280;46289;51.992;4.498;2022-08-06T12:03:48;102995.88;;;22.69;46.12
60437;BME280;46289;51.992;4.498;2022-08-06T12:06:27;103000.41;;;22.20;47.58
60437;BME280;46289;51.992;4.498;2022-08-06T12:09:08;102989.59;;;22.87;44.76
60437;BME280;46289;51.992;4.498;2022-08-06T12:12:31;102995.66;;;23.21;43.17
60437;BME280;46289;51.992;4.498;2022-08-06T12:15:36;102994.88;;;22.98;42.76
60437;BME280;46289;51.992;4.498;2022-08-06T12:18:27;102996.63;;;23.03;41.35
60437;BME280;46289;51.992;4.498;2022-08-06T12:20:58;102991.88;;;23.60;43.54
60437;BME280;46289;51.992;4.498;2022-08-06T12:23:33;102983.81;;;23.66;42.95
60437;BME280;46289;51.992;4.498;2022-08-06T12:26:23;102991.84;;;23.68;42.69
60437;BME280;46289;51.992;4.498;2022-08-06T12:29:04;102992.91;;;23.35;42.04
60437;BME280;46289;51.992;4.498;2022-08-06T12:31:37;102981.41;;;23.19;42.79
60437;BME280;46289;51.992;4.498;2022-08-06T12:34:27;102971.63;;;23.07;44.40
60437;BME280;46289;51.992;4.498;2022-08-06T12:36:58;102978.63;;;23.36;44.50
60437;BME280;46289;51.992;4.498;2022-08-06T12:39:38;102975.22;;;23.05;45.82
60437;BME280;46289;51.992;4.498;2022-08-06T12:42:26;102982.41;;;22.95;44.30
60437;BME280;46289;51.992;4.498;2022-08-06T12:45:20;102983.28;;;22.94;44.13
60437;BME280;46289;51.992;4.498;2022-08-06T12:48:12;102976.25;;;22.73;44.65
60437;BME280;46289;51.992;4.498;2022-08-06T12:50:43;102964.19;;;23.64;44.19
60437;BME280;46289;51.992;4.498;2022-08-06T12:53:15;102969.63;;;23.46;42.18
60437;BME280;46289;51.992;4.498;2022-08-06T12:55:51;102980.50;;;23.17;42.69
60437;BME280;46289;51.992;4.498;2022-08-06T12:58:30;102973.13;;;23.60;43.80
60437;BME280;46289;51.992;4.498;2022-08-06T13:01:12;102970.00;;;22.85;42.51
60437;BME280;46289;51.992;4.498;2022-08-06T13:04:05;102969.91;;;22.94;43.91
60437;BME280;46289;51.992;4.498;2022-08-06T13:06:42;102968.22;;;22.84;43.14
60437;BME280;46289;51.992;4.498;2022-08-06T13:09:15;102968.94;;;23.09;43.10
60437;BME280;46289;51.992;4.498;2022-08-06T13:11:49;102963.31;;;23.59;44.33
60437;BME280;46289;51.992;4.498;2022-08-06T13:14:20;102967.19;;;24.27;41.36
60437;BME280;46289;51.992;4.498;2022-08-06T13:16:53;102974.94;;;23.52;43.74
60437;BME280;46289;51.992;4.498;2022-08-06T13:19:26;102966.84;;;23.66;42.44
60437;BME280;46289;51.992;4.498;2022-08-06T13:22:08;102958.75;;;23.75;42.48
60437;BME280;46289;51.992;4.498;2022-08-06T13:24:45;102962.00;;;24.09;42.49
60437;BME280;46289;51.992;4.498;2022-08-06T13:27:35;102962.34;;;23.72;41.66
60437;BME280;46289;51.992;4.498;2022-08-06T13:30:29;102963.44;;;23.35;41.46
60437;BME280;46289;51.992;4.498;2022-08-06T13:33:14;102975.13;;;23.25;40.61
60437;BME280;46289;51.992;4.498;2022-08-06T13:35:48;102971.38;;;23.58;41.95
60437;BME280;46289;51.992;4.498;2022-08-06T13:38:29;102972.28;;;23.51;42.16
60437;BME280;46289;51.992;4.498;2022-08-06T13:41:03;102967.13;;;23.17;43.53
60437;BME280;46289;51.992;4.498;2022-08-06T13:43:39;102963.25;;;23.68;43.47
60437;BME280;46289;51.992;4.498;2022-08-06T13:46:23;102960.59;;;24.59;43.18
60437;BME280;46289;51.992;4.498;2022-08-06T13:49:00;102957.47;;;24.14;40.54
60437;BME280;46289;51.992;4.498;2022-08-06T13:51:40;102958.63;;;23.89;40.54
60437;BME280;46289;51.992;4.498;2022-08-06T13:54:20;102966.38;;;22.89;41.08
60437;BME280;46289;51.992;4.498;2022-08-06T13:56:52;102965.41;;;23.05;41.26
60437;BME280;46289;51.992;4.498;2022-08-06T13:59:29;102965.09;;;23.62;42.82
60437;BME280;46289;51.992;4.498;2022-08-06T14:02:09;102966.31;;;23.01;43.28
60437;BME280;46289;51.992;4.498;2022-08-06T14:04:39;102960.09;;;22.93;43.68
60437;BME280;46289;51.992;4.498;2022-08-06T14:07:16;102965.28;;;23.27;43.81